createdAt,value
2018-08-13T00:00:01.246Z,93.04
2018-08-13T00:02:30.103Z,93.75
2018-08-13T00:04:59.231Z,93.67
2018-08-13T00:07:28.071Z,95.78
2018-08-13T00:09:57.097Z,97.95
2018-08-13T00:12:25.947Z,99.76
2018-08-13T00:14:55.277Z,100.00
2018-08-13T00:17:24.172Z,100.00
2018-08-13T00:19:53.224Z,100.00
2018-08-13T00:22:22.502Z,99.86
2018-08-13T00:24:51.780Z,100.00
2018-08-13T00:27:20.706Z,100.00
2018-08-13T00:29:49.692Z,100.00
2018-08-13T00:32:18.689Z,100.00
2018-08-13T00:34:47.996Z,100.00
2018-08-13T00:37:17.236Z,100.00
2018-08-13T00:39:46.521Z,100.00
2018-08-13T00:42:15.480Z,100.00
2018-08-13T00:44:44.525Z,100.00
2018-08-13T00:47:13.405Z,100.00
2018-08-13T00:49:42.299Z,100.00
2018-08-13T00:52:11.685Z,100.00
2018-08-13T00:54:41.023Z,100.00
2018-08-13T00:57:10.041Z,100.00
2018-08-13T00:59:38.958Z,100.00
2018-08-13T01:02:07.835Z,100.00
2018-08-13T01:04:37.288Z,100.00
2018-08-13T01:07:06.280Z,100.00
2018-08-13T01:09:35.156Z,100.00
2018-08-13T01:12:04.655Z,100.00
2018-08-13T01:14:33.723Z,100.00
2018-08-13T01:17:02.675Z,100.00
2018-08-13T01:19:31.559Z,100.00
2018-08-13T01:22:00.427Z,100.00
2018-08-13T01:24:29.288Z,100.00
2018-08-13T01:26:58.392Z,100.00
2018-08-13T01:29:27.607Z,100.00
2018-08-13T01:31:57.004Z,100.00
2018-08-13T01:34:26.065Z,100.00
2018-08-13T01:36:54.887Z,100.00
2018-08-13T01:39:24.355Z,100.00
2018-08-13T01:41:53.707Z,100.00
2018-08-13T01:44:22.696Z,100.00
2018-08-13T01:46:51.684Z,100.00
2018-08-13T01:49:21.031Z,100.00
2018-08-13T01:51:50.082Z,100.00
2018-08-13T01:54:19.056Z,100.00
2018-08-13T01:56:48.503Z,100.00
2018-08-13T01:59:17.667Z,100.00
2018-08-13T02:01:47.364Z,100.00
2018-08-13T02:04:16.376Z,100.00
2018-08-13T02:06:45.471Z,100.00
2018-08-13T02:09:14.809Z,100.00
2018-08-13T02:11:43.844Z,100.00
2018-08-13T02:14:12.804Z,100.00
2018-08-13T02:16:42.043Z,100.00
2018-08-13T02:19:11.364Z,100.00
2018-08-13T02:21:40.193Z,100.00
2018-08-13T02:24:09.052Z,100.00
2018-08-13T02:26:37.934Z,100.00
2018-08-13T02:29:06.936Z,100.00
2018-08-13T02:31:35.917Z,100.00
2018-08-13T02:34:05.860Z,100.00
2018-08-13T02:36:35.261Z,100.00
2018-08-13T02:39:05.174Z,100.00
2018-08-13T02:41:34.035Z,100.00
2018-08-13T02:44:02.896Z,100.00
2018-08-13T02:46:32.273Z,100.00
2018-08-13T02:49:01.231Z,100.00
2018-08-13T02:51:30.596Z,100.00
2018-08-13T02:54:00.008Z,100.00
2018-08-13T02:56:29.000Z,100.00
2018-08-13T02:58:58.236Z,100.00
2018-08-13T03:01:27.168Z,100.00
2018-08-13T03:03:56.164Z,100.00
2018-08-13T03:06:25.460Z,100.00
2018-08-13T03:08:54.631Z,100.00
2018-08-13T03:11:23.960Z,100.00
2018-08-13T03:13:53.403Z,100.00
2018-08-13T03:16:22.452Z,100.00
2018-08-13T03:18:51.508Z,100.00
2018-08-13T03:21:20.464Z,100.00
2018-08-13T03:23:49.499Z,100.00
2018-08-13T03:26:18.520Z,100.00
2018-08-13T03:28:47.524Z,100.00
2018-08-13T03:31:16.845Z,100.00
2018-08-13T03:33:45.996Z,100.00
2018-08-13T03:36:15.208Z,100.00
2018-08-13T03:38:44.413Z,100.00
2018-08-13T03:41:13.720Z,100.00
2018-08-13T03:43:42.839Z,100.00
2018-08-13T03:46:11.715Z,100.00
2018-08-13T03:48:40.760Z,100.00
2018-08-13T03:51:10.623Z,100.00
2018-08-13T03:53:39.567Z,100.00
2018-08-13T03:56:08.707Z,100.00
2018-08-13T03:58:37.617Z,100.00
2018-08-13T04:01:06.737Z,100.00
2018-08-13T04:03:35.892Z,100.00
2018-08-13T04:06:04.844Z,100.00
2018-08-13T04:08:33.747Z,100.00
2018-08-13T04:11:02.920Z,100.00
2018-08-13T04:13:31.884Z,100.00
2018-08-13T04:16:00.849Z,100.00
2018-08-13T04:18:29.700Z,99.98
2018-08-13T04:20:58.598Z,100.00
2018-08-13T04:23:27.519Z,100.00
2018-08-13T04:25:56.892Z,100.00
2018-08-13T04:28:26.260Z,99.72
2018-08-13T04:30:55.183Z,99.56
2018-08-13T04:33:24.456Z,99.00
2018-08-13T04:35:53.960Z,98.82
2018-08-13T04:38:23.144Z,98.79
2018-08-13T04:40:52.452Z,98.72
2018-08-13T04:43:22.313Z,98.28
2018-08-13T04:45:51.197Z,98.62
2018-08-13T04:48:20.177Z,98.34
2018-08-13T04:50:49.021Z,98.63
2018-08-13T04:53:18.140Z,97.31
2018-08-13T04:55:47.404Z,97.19
2018-08-13T04:58:16.609Z,97.38
2018-08-13T05:00:45.840Z,95.73
2018-08-13T05:03:14.705Z,96.62
2018-08-13T05:05:43.962Z,96.82
2018-08-13T05:08:13.079Z,96.15
2018-08-13T05:10:42.193Z,96.03
2018-08-13T05:13:11.434Z,95.61
2018-08-13T05:15:40.461Z,96.34
2018-08-13T05:18:09.391Z,95.06
2018-08-13T05:20:38.316Z,94.98
2018-08-13T05:23:07.135Z,94.10
2018-08-13T05:25:36.379Z,94.59
2018-08-13T05:28:05.604Z,94.84
2018-08-13T05:30:34.857Z,94.33
2018-08-13T05:33:03.940Z,93.48
2018-08-13T05:35:33.155Z,92.86
2018-08-13T05:38:02.402Z,92.27
2018-08-13T05:40:31.388Z,91.85
2018-08-13T05:43:00.360Z,91.47
2018-08-13T05:45:29.484Z,91.52
2018-08-13T05:47:58.508Z,91.20
2018-08-13T05:50:27.986Z,90.70
2018-08-13T05:52:56.898Z,89.75
2018-08-13T05:55:25.841Z,90.14
2018-08-13T05:57:54.876Z,89.73
2018-08-13T06:00:24.202Z,89.92
2018-08-13T06:02:53.137Z,89.04
2018-08-13T06:05:22.455Z,88.18
2018-08-13T06:07:51.788Z,88.42
2018-08-13T06:10:20.826Z,88.31
2018-08-13T06:12:49.805Z,88.26
2018-08-13T06:15:19.220Z,87.21
2018-08-13T06:17:48.103Z,86.79
2018-08-13T06:20:16.979Z,87.91
2018-08-13T06:22:46.197Z,87.30
2018-08-13T06:25:15.076Z,86.17
2018-08-13T06:27:44.343Z,85.24
2018-08-13T06:30:15.072Z,84.59
2018-08-13T06:32:44.421Z,82.49
2018-08-13T06:35:14.221Z,82.28
2018-08-13T06:37:43.910Z,81.10
2018-08-13T06:40:13.277Z,81.08
2018-08-13T06:42:42.467Z,81.37
2018-08-13T06:45:11.603Z,83.50
2018-08-13T06:47:41.454Z,82.07
2018-08-13T06:50:13.818Z,79.55
2018-08-13T06:52:43.496Z,78.10
2018-08-13T06:55:12.421Z,78.50
2018-08-13T06:57:41.886Z,76.59
2018-08-13T07:00:12.811Z,76.56
2018-08-13T07:02:41.978Z,76.69
2018-08-13T07:05:11.532Z,73.20
2018-08-13T07:07:41.260Z,72.39
2018-08-13T07:10:11.384Z,71.72
2018-08-13T07:12:41.611Z,69.37
2018-08-13T07:15:10.829Z,68.68
2018-08-13T07:17:40.036Z,66.84
2018-08-13T07:20:13.497Z,67.96
2018-08-13T07:22:43.303Z,67.68
2018-08-13T07:25:12.492Z,70.26
2018-08-13T07:27:41.922Z,68.45
2018-08-13T07:30:13.104Z,66.32
2018-08-13T07:32:42.600Z,69.09
2018-08-13T07:35:11.878Z,63.88
2018-08-13T07:37:40.832Z,66.43
2018-08-13T07:40:16.960Z,66.37
2018-08-13T07:42:46.223Z,63.50
2018-08-13T07:45:15.902Z,63.93
2018-08-13T07:47:45.194Z,65.63
2018-08-13T07:50:15.468Z,63.50
2018-08-13T07:52:44.325Z,63.72
2018-08-13T07:55:13.715Z,64.47
2018-08-13T07:57:42.749Z,62.61
2018-08-13T08:00:14.433Z,64.34
2018-08-13T08:02:43.355Z,64.72
2018-08-13T08:05:12.319Z,64.52
2018-08-13T08:07:41.498Z,62.63
2018-08-13T08:10:12.450Z,64.66
2018-08-13T08:12:41.828Z,64.75
2018-08-13T08:15:16.853Z,65.42
2018-08-13T08:17:45.827Z,64.58
2018-08-13T08:20:14.984Z,61.81
2018-08-13T08:22:44.139Z,62.20
2018-08-13T08:25:18.148Z,62.74
2018-08-13T08:27:47.027Z,66.48
2018-08-13T08:30:16.418Z,66.32
2018-08-13T08:32:45.216Z,60.82
2018-08-13T08:35:16.763Z,61.55
2018-08-13T08:37:46.084Z,62.27
2018-08-13T08:40:16.936Z,61.57
2018-08-13T08:42:45.809Z,60.84
2018-08-13T08:45:17.469Z,60.58
2018-08-13T08:47:46.594Z,63.21
2018-08-13T08:50:16.228Z,63.38
2018-08-13T08:52:45.881Z,60.87
2018-08-13T08:55:15.255Z,61.92
2018-08-13T08:57:44.491Z,60.24
2018-08-13T09:00:19.505Z,61.54
2018-08-13T09:02:48.982Z,61.23
2018-08-13T09:05:17.886Z,60.08
2018-08-13T09:07:47.192Z,62.18
2018-08-13T09:10:16.336Z,61.63
2018-08-13T09:12:45.210Z,61.22
2018-08-13T09:15:16.195Z,60.70
2018-08-13T09:17:56.865Z,59.20
2018-08-13T09:20:37.253Z,60.90
2018-08-13T09:23:17.123Z,60.73
2018-08-13T09:25:57.367Z,61.57
2018-08-13T09:28:38.121Z,61.45
2018-08-13T09:33:23.590Z,61.36
2018-08-13T09:35:52.601Z,62.51
2018-08-13T09:38:22.042Z,62.94
2018-08-13T09:40:50.956Z,63.74
2018-08-13T09:43:19.892Z,63.93
2018-08-13T09:45:48.775Z,62.65
2018-08-13T09:48:17.936Z,63.79
2018-08-13T09:50:46.795Z,62.40
2018-08-13T09:53:15.980Z,62.40
2018-08-13T09:55:45.060Z,62.69
2018-08-13T09:58:13.915Z,61.06
2018-08-13T10:00:48.057Z,63.36
2018-08-13T10:03:17.496Z,61.88
2018-08-13T10:05:46.704Z,61.64
2018-08-13T10:08:15.912Z,62.67
2018-08-13T10:10:45.477Z,62.64
2018-08-13T10:13:15.180Z,60.74
2018-08-13T10:15:44.091Z,62.85
2018-08-13T10:18:13.005Z,61.12
2018-08-13T10:20:41.903Z,60.90
2018-08-13T10:23:11.495Z,58.70
2018-08-13T10:25:40.600Z,56.11
2018-08-13T10:28:10.059Z,57.73
2018-08-13T10:30:39.044Z,56.86
2018-08-13T10:33:08.268Z,55.78
2018-08-13T10:35:37.172Z,57.08
2018-08-13T10:38:06.187Z,58.80
2018-08-13T10:40:35.118Z,56.21
2018-08-13T10:43:04.229Z,57.99
2018-08-13T10:45:33.101Z,58.80
2018-08-13T10:48:02.516Z,57.63
2018-08-13T10:50:31.488Z,58.07
2018-08-13T10:53:00.303Z,59.48
2018-08-13T10:55:29.296Z,59.71
2018-08-13T10:57:58.303Z,59.78
2018-08-13T11:00:27.211Z,59.33
2018-08-13T11:02:56.423Z,59.02
2018-08-13T11:05:25.576Z,57.13
2018-08-13T11:07:54.470Z,58.56
2018-08-13T11:10:23.623Z,60.17
2018-08-13T11:12:52.628Z,60.60
2018-08-13T11:15:21.879Z,59.64
2018-08-13T11:17:51.128Z,60.80
2018-08-13T11:20:20.440Z,59.71
2018-08-13T11:22:49.722Z,60.68
2018-08-13T11:25:18.628Z,61.67
2018-08-13T11:27:47.509Z,61.03
2018-08-13T11:30:17.525Z,59.41
2018-08-13T11:32:46.358Z,58.65
2018-08-13T11:35:15.883Z,59.35
2018-08-13T11:37:45.271Z,58.25
2018-08-13T11:40:15.295Z,58.55
2018-08-13T11:42:44.201Z,60.44
2018-08-13T11:45:13.244Z,61.45
2018-08-13T11:47:42.728Z,59.91
2018-08-13T11:50:15.139Z,60.55
2018-08-13T11:52:45.333Z,60.01
2018-08-13T11:55:14.335Z,60.62
2018-08-13T11:57:43.589Z,61.63
2018-08-13T12:00:13.123Z,58.64
2018-08-13T12:02:41.991Z,60.70
2018-08-13T12:05:12.864Z,58.58
2018-08-13T12:07:42.683Z,57.66
2018-08-13T12:10:12.748Z,57.87
2018-08-13T12:12:42.443Z,58.48
2018-08-13T12:15:12.515Z,58.82
2018-08-13T12:17:41.855Z,58.13
2018-08-13T12:20:13.937Z,57.17
2018-08-13T12:22:43.623Z,57.84
2018-08-13T12:25:21.084Z,57.34
2018-08-13T12:27:50.078Z,58.35
2018-08-13T12:30:19.356Z,57.67
2018-08-13T12:32:49.073Z,57.07
2018-08-13T12:35:18.202Z,57.62
2018-08-13T12:37:47.537Z,57.88
2018-08-13T12:40:16.490Z,57.68
2018-08-13T12:42:45.408Z,57.59
2018-08-13T12:45:16.536Z,59.06
2018-08-13T12:47:46.125Z,57.12
2018-08-13T12:50:17.912Z,55.72
2018-08-13T12:52:48.052Z,56.73
2018-08-13T12:55:17.112Z,56.22
2018-08-13T12:57:46.022Z,56.24
2018-08-13T13:00:15.941Z,55.71
2018-08-13T13:02:45.337Z,57.83
2018-08-13T13:05:15.600Z,58.35
2018-08-13T13:07:44.659Z,56.33
2018-08-13T13:10:15.320Z,56.23
2018-08-13T13:12:44.485Z,56.89
2018-08-13T13:15:18.977Z,55.82
2018-08-13T13:17:47.942Z,55.82
2018-08-13T13:20:19.150Z,56.40
2018-08-13T13:22:48.623Z,55.06
2018-08-13T13:25:17.996Z,54.23
2018-08-13T13:27:47.291Z,55.87
2018-08-13T13:30:17.165Z,55.25
2018-08-13T13:32:46.548Z,54.73
2018-08-13T13:35:17.497Z,53.98
2018-08-13T13:37:46.496Z,52.92
2018-08-13T13:40:16.487Z,53.42
2018-08-13T13:42:45.812Z,53.91
2018-08-13T13:45:15.384Z,52.58
2018-08-13T13:47:44.385Z,53.14
2018-08-13T13:50:16.169Z,49.99
2018-08-13T13:52:45.420Z,48.31
2018-08-13T13:55:14.848Z,45.24
2018-08-13T13:57:44.005Z,41.99
2018-08-13T14:00:15.160Z,41.36
2018-08-13T14:02:44.443Z,41.67
2018-08-13T14:05:14.126Z,39.42
2018-08-13T14:07:43.180Z,41.61
2018-08-13T14:10:15.757Z,43.04
2018-08-13T14:12:46.036Z,42.89
2018-08-13T14:15:17.744Z,39.37
2018-08-13T14:17:47.072Z,39.53
2018-08-13T14:20:16.291Z,38.42
2018-08-13T14:22:45.424Z,38.63
2018-08-13T14:25:14.953Z,40.55
2018-08-13T14:27:43.875Z,41.13
2018-08-13T14:30:15.075Z,38.74
2018-08-13T14:32:44.380Z,39.31
2018-08-13T14:35:13.679Z,39.58
2018-08-13T14:37:42.672Z,42.35
2018-08-13T14:40:12.683Z,38.68
2018-08-13T14:42:42.083Z,37.29
2018-08-13T14:45:12.478Z,38.89
2018-08-13T14:47:42.473Z,37.18
2018-08-13T14:50:12.047Z,37.64
2018-08-13T14:52:42.925Z,37.86
2018-08-13T14:55:12.372Z,38.46
2018-08-13T14:57:41.583Z,39.57
2018-08-13T15:00:20.773Z,38.83
2018-08-13T15:02:50.292Z,39.96
2018-08-13T15:05:19.441Z,40.80
2018-08-13T15:07:48.713Z,41.67
2018-08-13T15:10:22.992Z,42.04
2018-08-13T15:12:51.901Z,41.76
2018-08-13T15:15:21.096Z,39.85
2018-08-13T15:17:50.144Z,40.27
2018-08-13T15:20:23.256Z,41.68
2018-08-13T15:22:52.592Z,41.02
2018-08-13T15:25:21.619Z,39.03
2018-08-13T15:27:50.958Z,39.74
2018-08-13T15:30:20.728Z,40.03
2018-08-13T15:32:50.923Z,40.37
2018-08-13T15:35:19.841Z,41.87
2018-08-13T15:37:49.391Z,42.10
2018-08-13T15:40:18.620Z,41.70
2018-08-13T15:42:47.697Z,45.74
2018-08-13T15:45:18.857Z,43.97
2018-08-13T15:47:48.308Z,42.10
2018-08-13T15:50:18.597Z,40.69
2018-08-13T15:52:47.968Z,40.23
2018-08-13T15:55:16.867Z,40.04
2018-08-13T15:57:46.200Z,37.99
2018-08-13T16:00:21.088Z,38.28
2018-08-13T16:02:50.295Z,41.25
2018-08-13T16:05:19.509Z,41.11
2018-08-13T16:07:48.865Z,38.55
2018-08-13T16:10:18.916Z,38.61
2018-08-13T16:12:47.939Z,37.73
2018-08-13T16:15:16.871Z,40.41
2018-08-13T16:17:45.797Z,37.03
2018-08-13T16:20:18.524Z,38.34
2018-08-13T16:22:48.072Z,38.54
2018-08-13T16:25:17.671Z,39.95
2018-08-13T16:27:47.339Z,38.34
2018-08-13T16:30:22.754Z,39.51
2018-08-13T16:32:51.953Z,42.30
2018-08-13T16:35:21.465Z,44.02
2018-08-13T16:37:50.477Z,43.84
2018-08-13T16:40:20.424Z,43.65
2018-08-13T16:42:49.787Z,45.09
2018-08-13T16:45:19.929Z,46.65
2018-08-13T16:47:48.903Z,44.29
2018-08-13T16:50:35.359Z,48.22
2018-08-13T16:53:04.864Z,47.37
2018-08-13T16:55:34.064Z,48.27
2018-08-13T16:58:03.483Z,49.84
2018-08-13T17:00:33.023Z,53.94
2018-08-13T17:03:02.163Z,55.49
2018-08-13T17:05:33.326Z,55.50
2018-08-13T17:08:02.184Z,56.48
2018-08-13T17:10:31.304Z,58.50
2018-08-13T17:13:00.979Z,59.36
2018-08-13T17:15:31.727Z,61.24
2018-08-13T17:18:01.951Z,63.97
2018-08-13T17:20:32.585Z,64.40
2018-08-13T17:23:01.563Z,65.47
2018-08-13T17:25:30.560Z,66.12
2018-08-13T17:27:59.567Z,66.94
2018-08-13T17:30:28.785Z,65.83
2018-08-13T17:32:58.848Z,65.02
2018-08-13T17:35:30.120Z,64.82
2018-08-13T17:37:59.423Z,64.81
2018-08-13T17:40:28.637Z,65.66
2018-08-13T17:42:57.879Z,64.86
2018-08-13T17:45:27.103Z,65.99
2018-08-13T17:47:56.288Z,66.35
2018-08-13T17:50:25.391Z,67.40
2018-08-13T17:52:54.500Z,68.06
2018-08-13T17:55:23.415Z,68.31
2018-08-13T17:57:52.500Z,69.15
2018-08-13T18:00:22.715Z,69.07
2018-08-13T18:02:51.714Z,69.77
2018-08-13T18:05:22.600Z,70.56
2018-08-13T18:07:51.912Z,71.06
2018-08-13T18:10:24.193Z,71.16
2018-08-13T18:12:53.206Z,72.47
2018-08-13T18:15:22.148Z,74.20
2018-08-13T18:17:50.970Z,75.56
2018-08-13T18:20:19.914Z,75.33
2018-08-13T18:22:48.947Z,76.56
2018-08-13T18:25:17.848Z,77.50
2018-08-13T18:27:47.843Z,78.77
2018-08-13T18:30:19.584Z,79.03
2018-08-13T18:32:48.679Z,79.69
2018-08-13T18:35:17.836Z,79.81
2018-08-13T18:37:46.948Z,79.41
2018-08-13T18:40:18.657Z,80.50
2018-08-13T18:42:47.748Z,81.37
2018-08-13T18:45:17.280Z,81.08
2018-08-13T18:47:46.237Z,81.15
2018-08-13T18:50:17.829Z,81.47
2018-08-13T18:52:46.951Z,81.76
2018-08-13T18:55:17.021Z,82.80
2018-08-13T18:57:46.275Z,82.74
2018-08-13T19:00:18.724Z,82.72
2018-08-13T19:02:47.887Z,83.26
2018-08-13T19:05:18.189Z,81.86
2018-08-13T19:07:47.707Z,82.71
2018-08-13T19:10:17.263Z,81.95
2018-08-13T19:12:46.122Z,80.19
2018-08-13T19:15:17.568Z,80.81
2018-08-13T19:17:46.415Z,79.88
2018-08-13T19:20:15.681Z,83.50
2018-08-13T19:22:44.760Z,82.81
2018-08-13T19:25:15.471Z,83.71
2018-08-13T19:27:44.695Z,84.57
2018-08-13T19:30:15.430Z,84.27
2018-08-13T19:32:45.140Z,83.06
2018-08-13T19:35:14.084Z,83.75
2018-08-13T19:37:43.116Z,83.92
2018-08-13T19:40:14.411Z,83.78
2018-08-13T19:42:43.852Z,84.07
2018-08-13T19:45:13.991Z,84.92
2018-08-13T19:47:43.036Z,83.51
2018-08-13T19:50:12.406Z,83.70
2018-08-13T19:52:43.095Z,84.07
2018-08-13T19:55:12.478Z,84.48
2018-08-13T19:57:41.739Z,83.55
2018-08-13T20:00:17.887Z,82.72
2018-08-13T20:02:47.313Z,82.54
2018-08-13T20:05:16.255Z,82.70
2018-08-13T20:07:45.163Z,84.33
2018-08-13T20:10:15.204Z,84.76
2018-08-13T20:12:44.753Z,85.39
2018-08-13T20:15:13.776Z,84.95
2018-08-13T20:17:43.022Z,85.58
2018-08-13T20:20:15.100Z,84.83
2018-08-13T20:22:44.906Z,84.64
2018-08-13T20:25:15.046Z,84.55
2018-08-13T20:27:44.414Z,84.85
2018-08-13T20:30:15.272Z,84.30
2018-08-13T20:32:45.140Z,84.09
2018-08-13T20:35:14.019Z,84.57
2018-08-13T20:37:42.903Z,84.17
2018-08-13T20:40:13.660Z,84.16
2018-08-13T20:42:42.818Z,84.74
2018-08-13T20:45:14.212Z,83.02
2018-08-13T20:47:43.656Z,82.13
2018-08-13T20:50:16.139Z,85.20
2018-08-13T20:52:45.813Z,84.08
2018-08-13T20:55:20.132Z,85.12
2018-08-13T20:57:49.567Z,86.54
2018-08-13T21:00:19.927Z,86.97
2018-08-13T21:02:49.008Z,84.96
2018-08-13T21:05:18.291Z,85.18
2018-08-13T21:07:48.755Z,84.10
2018-08-13T21:10:18.875Z,82.78
2018-08-13T21:12:47.969Z,84.59
2018-08-13T21:15:17.808Z,85.16
2018-08-13T21:17:46.966Z,87.22
2018-08-13T21:20:26.344Z,85.98
2018-08-13T21:22:55.759Z,86.20
2018-08-13T21:25:25.041Z,86.50
2018-08-13T21:27:54.200Z,86.76
2018-08-13T21:30:23.058Z,86.32
2018-08-13T21:32:52.180Z,87.63
2018-08-13T21:35:23.475Z,89.08
2018-08-13T21:37:52.592Z,89.56
2018-08-13T21:40:21.495Z,90.26
2018-08-13T21:42:50.991Z,89.99
2018-08-13T21:45:20.016Z,89.54
2018-08-13T21:47:49.040Z,88.31
2018-08-13T21:50:20.256Z,87.30
2018-08-13T21:52:49.863Z,88.20
2018-08-13T21:55:19.203Z,89.52
2018-08-13T21:57:48.420Z,89.81
2018-08-13T22:00:29.077Z,90.64
2018-08-13T22:03:00.280Z,89.14
2018-08-13T22:05:29.259Z,91.31
2018-08-13T22:07:58.372Z,92.10
2018-08-13T22:10:27.676Z,92.43
2018-08-13T22:12:56.908Z,93.17
2018-08-13T22:15:31.660Z,91.95
2018-08-13T22:18:02.152Z,92.23
2018-08-13T22:20:32.184Z,92.55
2018-08-13T22:23:02.047Z,92.94
2018-08-13T22:25:38.647Z,93.50
2018-08-13T22:28:08.992Z,92.42
2018-08-13T22:30:38.143Z,91.76
2018-08-13T22:33:08.121Z,91.53
2018-08-13T22:35:36.972Z,92.81
2018-08-13T22:38:06.167Z,93.10
2018-08-13T22:40:35.120Z,94.38
2018-08-13T22:43:04.207Z,96.01
2018-08-13T22:45:33.040Z,96.99
2018-08-13T22:48:01.910Z,97.16
2018-08-13T22:50:30.884Z,97.77
2018-08-13T22:53:00.523Z,97.89
2018-08-13T22:55:29.420Z,97.34
2018-08-13T22:57:58.268Z,98.21
2018-08-13T23:00:27.221Z,98.42
2018-08-13T23:02:56.395Z,98.73
2018-08-13T23:05:26.379Z,98.62
2018-08-13T23:07:55.312Z,98.59
2018-08-13T23:10:25.212Z,98.96
2018-08-13T23:12:56.236Z,99.13
2018-08-13T23:15:25.270Z,99.01
2018-08-13T23:17:54.568Z,99.65
2018-08-13T23:20:26.445Z,99.62
2018-08-13T23:23:02.592Z,100.00
2018-08-13T23:25:32.492Z,100.00
2018-08-13T23:28:02.632Z,100.00
2018-08-13T23:30:31.712Z,100.00
2018-08-13T23:33:01.371Z,100.00
2018-08-13T23:35:31.200Z,100.00
2018-08-13T23:38:00.344Z,100.00
2018-08-13T23:40:29.929Z,100.00
2018-08-13T23:42:58.835Z,100.00
2018-08-13T23:45:30.260Z,100.00
2018-08-13T23:47:59.552Z,100.00
2018-08-13T23:50:28.803Z,100.00
2018-08-13T23:52:59.907Z,100.00
2018-08-13T23:55:31.704Z,100.00
2018-08-13T23:58:00.787Z,100.00
